Terminal Aerodrome Forecast
Issued by NWS Atlanta, GA

Current Version | Previous Version | Text Only | Print | Product List | Glossary On
Versions: 1 2 3 4 5 6 7 8 9 10 11 12 13 14 15 16 17 18 19 20 21 22 23 24 25 26 27 28 29 30 31 32 33 34 35 36
000
FTUS42 KFFC 191700
TAFATL
TAF
KATL 191720Z 1918/2024 05015G25KT P6SM OVC015
      TEMPO 1918/1922 5SM -DZ
     FM200200 06014KT P6SM OVC025
     FM201500 07014G24KT P6SM SCT030 BKN060
     FM202000 07012KT P6SM SCT035=

USA.gov is the U.S. government's official web portal to all federal, state and local government web resources and services.